sensor_id;sensor_type;location;lat;lon;timestamp;pressure;altitude;pressure_sealevel;temperature;humidity
56689;BME280;42565;53.342;-1.534;2023-02-04T00:02:19;100783.44;;;10.81;64.80
56689;BME280;42565;53.342;-1.534;2023-02-04T00:04:46;100786.02;;;10.67;64.98
56689;BME280;42565;53.342;-1.534;2023-02-04T00:07:13;100781.53;;;11.60;62.99
56689;BME280;42565;53.342;-1.534;2023-02-04T00:09:39;100787.10;;;11.08;64.10
56689;BME280;42565;53.342;-1.534;2023-02-04T00:12:06;100783.82;;;10.51;65.86
56689;BME280;42565;53.342;-1.534;2023-02-04T00:14:34;100780.32;;;10.99;65.41
56689;BME280;42565;53.342;-1.534;2023-02-04T00:17:00;100780.16;;;11.31;64.84
56689;BME280;42565;53.342;-1.534;2023-02-04T00:19:28;100777.63;;;11.29;63.94
56689;BME280;42565;53.342;-1.534;2023-02-04T00:21:55;100783.24;;;11.27;64.11
56689;BME280;42565;53.342;-1.534;2023-02-04T00:24:21;100785.11;;;10.76;65.06
56689;BME280;42565;53.342;-1.534;2023-02-04T00:26:48;100784.63;;;11.02;64.98
56689;BME280;42565;53.342;-1.534;2023-02-04T00:29:15;100781.50;;;10.21;65.81
56689;BME280;42565;53.342;-1.534;2023-02-04T00:31:41;100778.45;;;10.37;66.25
56689;BME280;42565;53.342;-1.534;2023-02-04T00:34:08;100778.61;;;9.86;67.27
56689;BME280;42565;53.342;-1.534;2023-02-04T00:36:35;100775.98;;;9.91;67.15
56689;BME280;42565;53.342;-1.534;2023-02-04T00:39:02;100778.20;;;10.42;66.18
56689;BME280;42565;53.342;-1.534;2023-02-04T00:41:29;100779.64;;;10.62;65.59
56689;BME280;42565;53.342;-1.534;2023-02-04T00:43:56;100774.31;;;10.68;64.78
56689;BME280;42565;53.342;-1.534;2023-02-04T00:46:23;100774.88;;;10.76;64.45
56689;BME280;42565;53.342;-1.534;2023-02-04T00:48:50;100776.28;;;10.06;65.49
56689;BME280;42565;53.342;-1.534;2023-02-04T00:51:17;100775.38;;;9.56;67.72
56689;BME280;42565;53.342;-1.534;2023-02-04T00:53:44;100775.09;;;9.91;66.91
56689;BME280;42565;53.342;-1.534;2023-02-04T00:56:10;100781.10;;;9.96;67.51
56689;BME280;42565;53.342;-1.534;2023-02-04T00:58:37;100778.20;;;9.37;68.49
56689;BME280;42565;53.342;-1.534;2023-02-04T01:01:05;100775.76;;;9.48;68.54
56689;BME280;42565;53.342;-1.534;2023-02-04T01:03:31;100775.87;;;10.00;68.54
56689;BME280;42565;53.342;-1.534;2023-02-04T01:05:58;100778.61;;;10.31;68.24
56689;BME280;42565;53.342;-1.534;2023-02-04T01:08:25;100780.38;;;10.17;68.33
56689;BME280;42565;53.342;-1.534;2023-02-04T01:10:51;100784.10;;;10.08;68.92
56689;BME280;42565;53.342;-1.534;2023-02-04T01:13:18;100785.15;;;9.76;68.87
56689;BME280;42565;53.342;-1.534;2023-02-04T01:15:45;100788.93;;;9.57;69.77
56689;BME280;42565;53.342;-1.534;2023-02-04T01:18:12;100792.08;;;9.55;69.48
56689;BME280;42565;53.342;-1.534;2023-02-04T01:20:39;100794.50;;;9.75;69.22
56689;BME280;42565;53.342;-1.534;2023-02-04T01:23:06;100799.56;;;9.67;69.23
56689;BME280;42565;53.342;-1.534;2023-02-04T01:25:32;100799.30;;;9.77;69.74
56689;BME280;42565;53.342;-1.534;2023-02-04T01:27:59;100795.49;;;9.66;69.38
56689;BME280;42565;53.342;-1.534;2023-02-04T01:30:26;100799.71;;;9.75;68.74
56689;BME280;42565;53.342;-1.534;2023-02-04T01:32:53;100798.38;;;9.47;69.49
56689;BME280;42565;53.342;-1.534;2023-02-04T01:35:20;100797.62;;;9.65;68.84
56689;BME280;42565;53.342;-1.534;2023-02-04T01:37:47;100797.53;;;9.88;69.08
56689;BME280;42565;53.342;-1.534;2023-02-04T01:40:14;100801.09;;;10.04;68.40
56689;BME280;42565;53.342;-1.534;2023-02-04T01:42:41;100803.79;;;9.92;68.91
56689;BME280;42565;53.342;-1.534;2023-02-04T01:45:10;100802.71;;;10.15;68.35
56689;BME280;42565;53.342;-1.534;2023-02-04T01:47:38;100803.24;;;10.23;68.18
56689;BME280;42565;53.342;-1.534;2023-02-04T01:50:07;100804.43;;;9.60;69.26
56689;BME280;42565;53.342;-1.534;2023-02-04T01:52:37;100803.42;;;9.47;70.60
56689;BME280;42565;53.342;-1.534;2023-02-04T01:55:12;100802.66;;;9.82;69.92
56689;BME280;42565;53.342;-1.534;2023-02-04T01:57:40;100807.33;;;9.89;68.87
56689;BME280;42565;53.342;-1.534;2023-02-04T02:00:13;100806.26;;;9.99;68.22
56689;BME280;42565;53.342;-1.534;2023-02-04T02:02:43;100808.15;;;10.14;68.27
56689;BME280;42565;53.342;-1.534;2023-02-04T02:05:14;100808.63;;;10.31;68.61
56689;BME280;42565;53.342;-1.534;2023-02-04T02:07:41;100811.52;;;9.83;69.17
56689;BME280;42565;53.342;-1.534;2023-02-04T02:10:11;100809.72;;;9.88;69.83
56689;BME280;42565;53.342;-1.534;2023-02-04T02:12:38;100805.28;;;9.69;69.80
56689;BME280;42565;53.342;-1.534;2023-02-04T02:15:08;100805.18;;;9.81;68.66
56689;BME280;42565;53.342;-1.534;2023-02-04T02:17:36;100803.37;;;8.96;70.98
56689;BME280;42565;53.342;-1.534;2023-02-04T02:20:06;100797.86;;;9.41;71.36
56689;BME280;42565;53.342;-1.534;2023-02-04T02:22:39;100797.02;;;9.55;71.42
56689;BME280;42565;53.342;-1.534;2023-02-04T02:25:09;100799.89;;;9.19;71.64
56689;BME280;42565;53.342;-1.534;2023-02-04T02:27:36;100799.45;;;9.48;72.42
56689;BME280;42565;53.342;-1.534;2023-02-04T02:30:05;100797.90;;;9.20;72.62
56689;BME280;42565;53.342;-1.534;2023-02-04T02:32:34;100794.37;;;9.32;71.93
56689;BME280;42565;53.342;-1.534;2023-02-04T02:35:02;100794.52;;;9.89;71.15
56689;BME280;42565;53.342;-1.534;2023-02-04T02:37:29;100793.78;;;9.62;71.63
56689;BME280;42565;53.342;-1.534;2023-02-04T02:39:56;100789.29;;;9.86;71.05
56689;BME280;42565;53.342;-1.534;2023-02-04T02:42:24;100790.04;;;10.17;70.26
56689;BME280;42565;53.342;-1.534;2023-02-04T02:44:52;100792.65;;;10.26;69.65
56689;BME280;42565;53.342;-1.534;2023-02-04T02:47:20;100791.46;;;9.52;70.72
56689;BME280;42565;53.342;-1.534;2023-02-04T02:49:50;100791.28;;;9.37;72.02
56689;BME280;42565;53.342;-1.534;2023-02-04T02:52:18;100792.57;;;9.44;72.07
56689;BME280;42565;53.342;-1.534;2023-02-04T02:54:46;100790.84;;;9.46;72.25
56689;BME280;42565;53.342;-1.534;2023-02-04T02:57:15;100787.12;;;9.26;72.45
56689;BME280;42565;53.342;-1.534;2023-02-04T02:59:42;100789.25;;;9.37;72.42
56689;BME280;42565;53.342;-1.534;2023-02-04T03:02:12;100791.60;;;9.52;72.33
56689;BME280;42565;53.342;-1.534;2023-02-04T03:04:42;100791.52;;;9.20;73.30
56689;BME280;42565;53.342;-1.534;2023-02-04T03:07:11;100793.57;;;9.53;73.27
56689;BME280;42565;53.342;-1.534;2023-02-04T03:09:39;100788.98;;;9.33;73.22
56689;BME280;42565;53.342;-1.534;2023-02-04T03:12:07;100791.21;;;9.36;73.01
56689;BME280;42565;53.342;-1.534;2023-02-04T03:14:35;100793.52;;;9.37;72.80
56689;BME280;42565;53.342;-1.534;2023-02-04T03:17:05;100791.75;;;9.46;72.62
56689;BME280;42565;53.342;-1.534;2023-02-04T03:19:33;100793.55;;;9.32;73.07
56689;BME280;42565;53.342;-1.534;2023-02-04T03:22:01;100794.32;;;9.67;71.75
56689;BME280;42565;53.342;-1.534;2023-02-04T03:24:29;100796.71;;;9.98;71.35
56689;BME280;42565;53.342;-1.534;2023-02-04T03:26:57;100797.57;;;9.82;71.85
56689;BME280;42565;53.342;-1.534;2023-02-04T03:29:24;100798.85;;;10.18;70.75
56689;BME280;42565;53.342;-1.534;2023-02-04T03:31:52;100794.55;;;10.15;70.85
56689;BME280;42565;53.342;-1.534;2023-02-04T03:34:20;100793.78;;;9.54;71.44
56689;BME280;42565;53.342;-1.534;2023-02-04T03:36:47;100798.46;;;9.73;71.78
56689;BME280;42565;53.342;-1.534;2023-02-04T03:39:15;100793.34;;;9.84;71.01
56689;BME280;42565;53.342;-1.534;2023-02-04T03:41:41;100791.82;;;9.81;70.65
56689;BME280;42565;53.342;-1.534;2023-02-04T03:44:09;100792.66;;;9.94;71.12
56689;BME280;42565;53.342;-1.534;2023-02-04T03:46:36;100792.26;;;9.89;71.58
56689;BME280;42565;53.342;-1.534;2023-02-04T03:49:02;100794.45;;;9.84;71.92
56689;BME280;42565;53.342;-1.534;2023-02-04T03:51:30;100795.10;;;9.83;72.25
56689;BME280;42565;53.342;-1.534;2023-02-04T03:53:58;100787.54;;;9.30;73.04
56689;BME280;42565;53.342;-1.534;2023-02-04T03:56:25;100789.11;;;9.49;73.35
56689;BME280;42565;53.342;-1.534;2023-02-04T03:58:53;100788.86;;;9.29;73.70
56689;BME280;42565;53.342;-1.534;2023-02-04T04:01:20;100791.30;;;9.39;73.45
56689;BME280;42565;53.342;-1.534;2023-02-04T04:03:47;100792.11;;;9.32;74.19
56689;BME280;42565;53.342;-1.534;2023-02-04T04:06:14;100787.76;;;9.43;73.66
56689;BME280;42565;53.342;-1.534;2023-02-04T04:08:40;100789.94;;;9.64;72.38
56689;BME280;42565;53.342;-1.534;2023-02-04T04:11:07;100794.19;;;9.67;72.82
56689;BME280;42565;53.342;-1.534;2023-02-04T04:13:34;100794.80;;;9.55;73.04
56689;BME280;42565;53.342;-1.534;2023-02-04T04:16:02;100793.07;;;9.69;73.02
56689;BME280;42565;53.342;-1.534;2023-02-04T04:18:29;100793.90;;;9.83;72.40
56689;BME280;42565;53.342;-1.534;2023-02-04T04:20:56;100799.27;;;9.69;72.67
56689;BME280;42565;53.342;-1.534;2023-02-04T04:23:23;100802.73;;;9.34;72.31
56689;BME280;42565;53.342;-1.534;2023-02-04T04:25:51;100801.21;;;9.58;73.10
56689;BME280;42565;53.342;-1.534;2023-02-04T04:28:18;100798.99;;;9.58;73.17
56689;BME280;42565;53.342;-1.534;2023-02-04T04:30:44;100798.97;;;9.80;72.10
56689;BME280;42565;53.342;-1.534;2023-02-04T04:33:11;100796.68;;;9.56;72.90
56689;BME280;42565;53.342;-1.534;2023-02-04T04:35:38;100797.50;;;9.39;71.96
56689;BME280;42565;53.342;-1.534;2023-02-04T04:38:04;100804.55;;;9.67;72.18
56689;BME280;42565;53.342;-1.534;2023-02-04T04:40:31;100803.36;;;9.78;71.49
56689;BME280;42565;53.342;-1.534;2023-02-04T04:42:58;100801.29;;;10.06;71.16
56689;BME280;42565;53.342;-1.534;2023-02-04T04:45:25;100798.74;;;9.44;73.21
56689;BME280;42565;53.342;-1.534;2023-02-04T04:47:51;100797.73;;;9.57;71.77
56689;BME280;42565;53.342;-1.534;2023-02-04T04:50:18;100797.13;;;10.03;71.68
56689;BME280;42565;53.342;-1.534;2023-02-04T04:52:46;100798.73;;;9.78;72.37
56689;BME280;42565;53.342;-1.534;2023-02-04T04:55:14;100800.51;;;9.17;73.91
56689;BME280;42565;53.342;-1.534;2023-02-04T04:57:41;100801.51;;;9.46;73.38
56689;BME280;42565;53.342;-1.534;2023-02-04T05:00:14;100809.03;;;9.85;72.57
56689;BME280;42565;53.342;-1.534;2023-02-04T05:02:42;100805.65;;;9.09;73.64
56689;BME280;42565;53.342;-1.534;2023-02-04T05:05:10;100805.56;;;9.16;73.78
56689;BME280;42565;53.342;-1.534;2023-02-04T05:07:37;100810.41;;;9.22;73.66
56689;BME280;42565;53.342;-1.534;2023-02-04T05:10:05;100814.84;;;9.42;73.98
56689;BME280;42565;53.342;-1.534;2023-02-04T05:12:32;100821.75;;;9.31;74.50
56689;BME280;42565;53.342;-1.534;2023-02-04T05:14:59;100825.77;;;9.87;73.15
56689;BME280;42565;53.342;-1.534;2023-02-04T05:17:26;100824.65;;;9.45;73.73
56689;BME280;42565;53.342;-1.534;2023-02-04T05:19:53;100828.26;;;9.62;73.31
56689;BME280;42565;53.342;-1.534;2023-02-04T05:22:20;100836.08;;;9.71;72.15
56689;BME280;42565;53.342;-1.534;2023-02-04T05:24:48;100835.19;;;9.70;72.99
56689;BME280;42565;53.342;-1.534;2023-02-04T05:27:15;100834.86;;;9.48;73.48
56689;BME280;42565;53.342;-1.534;2023-02-04T05:29:43;100839.02;;;9.37;74.17
56689;BME280;42565;53.342;-1.534;2023-02-04T05:32:09;100836.48;;;9.26;73.93
56689;BME280;42565;53.342;-1.534;2023-02-04T05:34:36;100838.09;;;9.31;73.31
56689;BME280;42565;53.342;-1.534;2023-02-04T05:37:04;100835.81;;;9.36;74.49
56689;BME280;42565;53.342;-1.534;2023-02-04T05:39:31;100833.15;;;9.89;72.89
56689;BME280;42565;53.342;-1.534;2023-02-04T05:41:58;100837.10;;;9.83;71.79
56689;BME280;42565;53.342;-1.534;2023-02-04T05:44:25;100836.15;;;9.78;72.22
56689;BME280;42565;53.342;-1.534;2023-02-04T05:46:51;100833.82;;;9.44;71.86
56689;BME280;42565;53.342;-1.534;2023-02-04T05:49:18;100834.99;;;9.30;73.29
56689;BME280;42565;53.342;-1.534;2023-02-04T05:51:45;100832.89;;;8.73;74.98
56689;BME280;42565;53.342;-1.534;2023-02-04T05:54:12;100832.92;;;9.07;74.85
56689;BME280;42565;53.342;-1.534;2023-02-04T05:56:38;100835.82;;;9.54;73.44
56689;BME280;42565;53.342;-1.534;2023-02-04T05:59:05;100837.19;;;9.22;72.98
56689;BME280;42565;53.342;-1.534;2023-02-04T06:01:32;100842.99;;;9.37;73.30
56689;BME280;42565;53.342;-1.534;2023-02-04T06:03:58;100840.39;;;9.62;72.45
56689;BME280;42565;53.342;-1.534;2023-02-04T06:06:25;100838.11;;;9.57;72.73
56689;BME280;42565;53.342;-1.534;2023-02-04T06:08:52;100839.78;;;9.27;73.19
56689;BME280;42565;53.342;-1.534;2023-02-04T06:11:19;100844.34;;;8.83;75.20
56689;BME280;42565;53.342;-1.534;2023-02-04T06:13:46;100842.06;;;8.43;75.73
56689;BME280;42565;53.342;-1.534;2023-02-04T06:16:13;100841.20;;;8.77;74.99
56689;BME280;42565;53.342;-1.534;2023-02-04T06:18:40;100839.66;;;8.85;74.96
56689;BME280;42565;53.342;-1.534;2023-02-04T06:21:08;100845.66;;;8.64;74.93
56689;BME280;42565;53.342;-1.534;2023-02-04T06:23:35;100843.78;;;8.79;74.14
56689;BME280;42565;53.342;-1.534;2023-02-04T06:26:02;100840.89;;;9.07;74.15
56689;BME280;42565;53.342;-1.534;2023-02-04T06:28:30;100845.35;;;9.22;73.03
56689;BME280;42565;53.342;-1.534;2023-02-04T06:30:56;100847.62;;;9.59;71.32
56689;BME280;42565;53.342;-1.534;2023-02-04T06:33:23;100849.95;;;9.71;71.14
56689;BME280;42565;53.342;-1.534;2023-02-04T06:35:51;100857.88;;;9.21;71.51
56689;BME280;42565;53.342;-1.534;2023-02-04T06:38:18;100859.77;;;9.02;72.64
56689;BME280;42565;53.342;-1.534;2023-02-04T06:40:45;100863.91;;;9.41;72.25
56689;BME280;42565;53.342;-1.534;2023-02-04T06:43:12;100865.44;;;9.21;73.19
56689;BME280;42565;53.342;-1.534;2023-02-04T06:45:39;100870.93;;;9.38;73.14
56689;BME280;42565;53.342;-1.534;2023-02-04T06:48:06;100873.46;;;9.12;73.05
56689;BME280;42565;53.342;-1.534;2023-02-04T06:50:33;100877.24;;;9.44;72.04
56689;BME280;42565;53.342;-1.534;2023-02-04T06:53:00;100874.96;;;9.03;72.91
56689;BME280;42565;53.342;-1.534;2023-02-04T06:55:27;100874.53;;;9.02;72.46
56689;BME280;42565;53.342;-1.534;2023-02-04T06:57:53;100873.18;;;9.18;72.67
56689;BME280;42565;53.342;-1.534;2023-02-04T07:00:20;100865.25;;;8.78;72.62
56689;BME280;42565;53.342;-1.534;2023-02-04T07:02:48;100865.05;;;8.76;72.88
56689;BME280;42565;53.342;-1.534;2023-02-04T07:05:15;100869.49;;;8.87;72.63
56689;BME280;42565;53.342;-1.534;2023-02-04T07:07:42;100874.29;;;8.55;73.97
56689;BME280;42565;53.342;-1.534;2023-02-04T07:10:09;100878.09;;;8.55;73.30
56689;BME280;42565;53.342;-1.534;2023-02-04T07:12:36;100881.91;;;8.61;72.72
56689;BME280;42565;53.342;-1.534;2023-02-04T07:15:04;100879.68;;;8.74;71.85
56689;BME280;42565;53.342;-1.534;2023-02-04T07:17:31;100888.29;;;8.77;72.21
56689;BME280;42565;53.342;-1.534;2023-02-04T07:19:58;100887.68;;;8.67;71.89
56689;BME280;42565;53.342;-1.534;2023-02-04T07:22:26;100887.72;;;8.92;71.60
56689;BME280;42565;53.342;-1.534;2023-02-04T07:24:53;100882.78;;;8.85;70.90
56689;BME280;42565;53.342;-1.534;2023-02-04T07:27:19;100887.53;;;8.38;71.68
56689;BME280;42565;53.342;-1.534;2023-02-04T07:29:47;100889.37;;;8.70;71.66
56689;BME280;42565;53.342;-1.534;2023-02-04T07:32:14;100886.97;;;8.50;71.22
56689;BME280;42565;53.342;-1.534;2023-02-04T07:34:42;100884.92;;;9.00;69.86
56689;BME280;42565;53.342;-1.534;2023-02-04T07:37:10;100886.81;;;8.72;70.33
56689;BME280;42565;53.342;-1.534;2023-02-04T07:39:37;100885.47;;;9.02;70.24
56689;BME280;42565;53.342;-1.534;2023-02-04T07:42:04;100883.73;;;9.16;69.46
56689;BME280;42565;53.342;-1.534;2023-02-04T07:44:31;100891.57;;;8.79;69.38
56689;BME280;42565;53.342;-1.534;2023-02-04T07:47:04;100892.73;;;8.73;70.14
56689;BME280;42565;53.342;-1.534;2023-02-04T07:49:31;100898.37;;;8.25;71.65
56689;BME280;42565;53.342;-1.534;2023-02-04T07:51:59;100895.28;;;8.44;70.89
56689;BME280;42565;53.342;-1.534;2023-02-04T07:54:26;100899.15;;;8.93;69.42
56689;BME280;42565;53.342;-1.534;2023-02-04T07:56:58;100900.22;;;8.73;69.65
56689;BME280;42565;53.342;-1.534;2023-02-04T07:59:25;100899.94;;;9.02;68.37
56689;BME280;42565;53.342;-1.534;2023-02-04T08:01:51;100907.45;;;8.68;68.10
56689;BME280;42565;53.342;-1.534;2023-02-04T08:04:18;100910.62;;;9.54;66.60
56689;BME280;42565;53.342;-1.534;2023-02-04T08:06:46;100911.74;;;9.14;66.88
56689;BME280;42565;53.342;-1.534;2023-02-04T08:09:12;100914.01;;;8.64;68.25
56689;BME280;42565;53.342;-1.534;2023-02-04T08:11:39;100919.32;;;8.28;69.17
56689;BME280;42565;53.342;-1.534;2023-02-04T08:14:06;100918.82;;;8.85;68.15
56689;BME280;42565;53.342;-1.534;2023-02-04T08:16:33;100920.67;;;8.19;69.38
56689;BME280;42565;53.342;-1.534;2023-02-04T08:18:59;100920.71;;;8.18;69.61
56689;BME280;42565;53.342;-1.534;2023-02-04T08:21:26;100922.31;;;8.55;68.80
56689;BME280;42565;53.342;-1.534;2023-02-04T08:23:54;100922.82;;;8.95;67.34
56689;BME280;42565;53.342;-1.534;2023-02-04T08:26:21;100927.10;;;8.52;68.06
56689;BME280;42565;53.342;-1.534;2023-02-04T08:28:49;100925.90;;;8.89;67.73
56689;BME280;42565;53.342;-1.534;2023-02-04T08:31:15;100929.97;;;8.11;69.36
56689;BME280;42565;53.342;-1.534;2023-02-04T08:33:43;100931.59;;;8.57;68.27
56689;BME280;42565;53.342;-1.534;2023-02-04T08:36:10;100931.26;;;9.07;67.23
56689;BME280;42565;53.342;-1.534;2023-02-04T08:38:36;100934.46;;;8.76;67.06
56689;BME280;42565;53.342;-1.534;2023-02-04T08:41:04;100940.85;;;8.89;67.02
56689;BME280;42565;53.342;-1.534;2023-02-04T08:43:31;100940.95;;;8.82;66.09
56689;BME280;42565;53.342;-1.534;2023-02-04T08:45:57;100937.24;;;8.73;66.40
56689;BME280;42565;53.342;-1.534;2023-02-04T08:48:24;100931.22;;;8.79;66.23
56689;BME280;42565;53.342;-1.534;2023-02-04T08:50:51;100929.20;;;8.89;65.82
56689;BME280;42565;53.342;-1.534;2023-02-04T08:53:17;100932.98;;;8.76;65.88
56689;BME280;42565;53.342;-1.534;2023-02-04T08:55:44;100929.43;;;8.10;67.14
56689;BME280;42565;53.342;-1.534;2023-02-04T08:58:12;100927.54;;;8.42;67.50
56689;BME280;42565;53.342;-1.534;2023-02-04T09:00:39;100926.04;;;8.30;66.94
56689;BME280;42565;53.342;-1.534;2023-02-04T09:03:05;100928.56;;;8.35;66.23
56689;BME280;42565;53.342;-1.534;2023-02-04T09:05:32;100932.29;;;8.19;65.64
56689;BME280;42565;53.342;-1.534;2023-02-04T09:08:00;100929.62;;;9.17;64.51
56689;BME280;42565;53.342;-1.534;2023-02-04T09:10:26;100931.58;;;9.15;63.71
56689;BME280;42565;53.342;-1.534;2023-02-04T09:12:53;100926.74;;;8.77;64.22
56689;BME280;42565;53.342;-1.534;2023-02-04T09:15:20;100925.62;;;9.68;62.80
56689;BME280;42565;53.342;-1.534;2023-02-04T09:17:47;100923.33;;;8.89;63.27
56689;BME280;42565;53.342;-1.534;2023-02-04T09:20:14;100922.16;;;9.17;63.54
56689;BME280;42565;53.342;-1.534;2023-02-04T09:22:42;100920.87;;;9.16;63.10
56689;BME280;42565;53.342;-1.534;2023-02-04T09:25:08;100917.76;;;9.32;63.24
56689;BME280;42565;53.342;-1.534;2023-02-04T09:27:35;100919.65;;;9.08;63.39
56689;BME280;42565;53.342;-1.534;2023-02-04T09:30:03;100917.49;;;8.97;63.06
56689;BME280;42565;53.342;-1.534;2023-02-04T09:32:30;100922.18;;;9.59;63.46
56689;BME280;42565;53.342;-1.534;2023-02-04T09:34:57;100925.14;;;9.49;62.93
56689;BME280;42565;53.342;-1.534;2023-02-04T09:37:23;100926.02;;;9.76;62.70
56689;BME280;42565;53.342;-1.534;2023-02-04T09:39:50;100930.70;;;9.37;62.95
56689;BME280;42565;53.342;-1.534;2023-02-04T09:42:23;100932.04;;;9.10;63.33
56689;BME280;42565;53.342;-1.534;2023-02-04T09:44:52;100932.73;;;8.89;63.13
56689;BME280;42565;53.342;-1.534;2023-02-04T09:47:22;100932.73;;;9.04;63.22
56689;BME280;42565;53.342;-1.534;2023-02-04T09:49:50;100938.34;;;9.16;62.63
56689;BME280;42565;53.342;-1.534;2023-02-04T09:52:17;100942.14;;;8.90;62.70
56689;BME280;42565;53.342;-1.534;2023-02-04T09:54:44;100943.58;;;8.87;63.15
56689;BME280;42565;53.342;-1.534;2023-02-04T09:57:14;100944.78;;;9.01;63.10
56689;BME280;42565;53.342;-1.534;2023-02-04T09:59:43;100949.59;;;8.66;64.40
56689;BME280;42565;53.342;-1.534;2023-02-04T10:02:20;100949.78;;;8.77;63.04
56689;BME280;42565;53.342;-1.534;2023-02-04T10:04:48;100949.62;;;9.30;62.30
56689;BME280;42565;53.342;-1.534;2023-02-04T10:07:18;100952.72;;;9.11;62.60
56689;BME280;42565;53.342;-1.534;2023-02-04T10:09:48;100954.22;;;8.87;63.67
56689;BME280;42565;53.342;-1.534;2023-02-04T10:12:15;100955.09;;;9.31;63.23
56689;BME280;42565;53.342;-1.534;2023-02-04T10:14:42;100955.96;;;8.97;62.68
56689;BME280;42565;53.342;-1.534;2023-02-04T10:17:10;100956.01;;;9.52;61.74
56689;BME280;42565;53.342;-1.534;2023-02-04T10:19:38;100954.04;;;8.73;62.43
56689;BME280;42565;53.342;-1.534;2023-02-04T10:22:15;100958.95;;;9.33;62.87
56689;BME280;42565;53.342;-1.534;2023-02-04T10:24:43;100961.20;;;9.21;62.21
56689;BME280;42565;53.342;-1.534;2023-02-04T10:27:12;100963.06;;;9.08;62.22
56689;BME280;42565;53.342;-1.534;2023-02-04T10:29:40;100964.92;;;8.56;62.96
56689;BME280;42565;53.342;-1.534;2023-02-04T10:32:25;100964.37;;;9.11;62.75
56689;BME280;42565;53.342;-1.534;2023-02-04T10:34:57;100964.91;;;9.64;62.00
56689;BME280;42565;53.342;-1.534;2023-02-04T10:37:25;100971.15;;;9.55;61.15
56689;BME280;42565;53.342;-1.534;2023-02-04T10:39:52;100970.00;;;9.75;60.84
56689;BME280;42565;53.342;-1.534;2023-02-04T10:42:22;100968.47;;;9.73;60.23
56689;BME280;42565;53.342;-1.534;2023-02-04T10:44:50;100970.51;;;9.81;60.81
56689;BME280;42565;53.342;-1.534;2023-02-04T10:47:19;100975.26;;;9.86;61.22
56689;BME280;42565;53.342;-1.534;2023-02-04T10:49:55;100976.71;;;9.89;60.43
56689;BME280;42565;53.342;-1.534;2023-02-04T10:52:33;100973.10;;;9.49;59.88
56689;BME280;42565;53.342;-1.534;2023-02-04T10:55:01;100974.61;;;9.71;59.21
56689;BME280;42565;53.342;-1.534;2023-02-04T10:57:37;100976.70;;;9.12;60.04
56689;BME280;42565;53.342;-1.534;2023-02-04T11:00:15;100979.05;;;9.55;61.01
56689;BME280;42565;53.342;-1.534;2023-02-04T11:00:18;100977.75;;;9.84;60.97
56689;BME280;42565;53.342;-1.534;2023-02-04T11:02:49;100982.13;;;9.42;60.39
56689;BME280;42565;53.342;-1.534;2023-02-04T11:05:20;100981.92;;;9.42;60.11
56689;BME280;42565;53.342;-1.534;2023-02-04T11:07:50;100976.06;;;9.41;59.72
56689;BME280;42565;53.342;-1.534;2023-02-04T11:10:19;100975.83;;;9.81;59.38
56689;BME280;42565;53.342;-1.534;2023-02-04T11:12:59;100972.90;;;8.94;59.92
56689;BME280;42565;53.342;-1.534;2023-02-04T11:15:40;100976.07;;;8.85;60.07
56689;BME280;42565;53.342;-1.534;2023-02-04T11:18:08;100977.35;;;8.48;61.58
56689;BME280;42565;53.342;-1.534;2023-02-04T11:20:37;100976.71;;;9.39;60.62
56689;BME280;42565;53.342;-1.534;2023-02-04T11:23:37;100970.94;;;9.48;59.02
56689;BME280;42565;53.342;-1.534;2023-02-04T11:26:08;100968.09;;;9.02;61.60
56689;BME280;42565;53.342;-1.534;2023-02-04T11:29:24;100968.78;;;9.64;59.90
56689;BME280;42565;53.342;-1.534;2023-02-04T11:31:58;100967.51;;;9.55;59.17
56689;BME280;42565;53.342;-1.534;2023-02-04T11:34:29;100969.73;;;9.43;59.32
56689;BME280;42565;53.342;-1.534;2023-02-04T11:37:12;100972.76;;;9.69;59.12
56689;BME280;42565;53.342;-1.534;2023-02-04T11:39:40;100977.94;;;9.55;60.10
56689;BME280;42565;53.342;-1.534;2023-02-04T11:42:29;100980.53;;;9.64;59.93
56689;BME280;42565;53.342;-1.534;2023-02-04T11:44:59;100975.73;;;9.81;58.68
56689;BME280;42565;53.342;-1.534;2023-02-04T11:47:27;100974.14;;;9.44;58.74
56689;BME280;42565;53.342;-1.534;2023-02-04T11:50:03;100970.74;;;9.29;59.10
56689;BME280;42565;53.342;-1.534;2023-02-04T11:52:36;100960.68;;;9.35;58.20
56689;BME280;42565;53.342;-1.534;2023-02-04T11:55:04;100962.42;;;9.39;58.99
56689;BME280;42565;53.342;-1.534;2023-02-04T11:57:37;100957.18;;;9.96;57.85
56689;BME280;42565;53.342;-1.534;2023-02-04T12:00:11;100959.83;;;9.44;58.54
56689;BME280;42565;53.342;-1.534;2023-02-04T12:02:43;100957.15;;;9.73;58.36
56689;BME280;42565;53.342;-1.534;2023-02-04T12:05:12;100956.65;;;9.45;59.31
56689;BME280;42565;53.342;-1.534;2023-02-04T12:07:39;100962.46;;;10.17;58.45
56689;BME280;42565;53.342;-1.534;2023-02-04T12:10:13;100962.56;;;9.39;58.99
56689;BME280;42565;53.342;-1.534;2023-02-04T12:12:43;100965.43;;;9.83;58.22
56689;BME280;42565;53.342;-1.534;2023-02-04T12:15:20;100961.67;;;9.72;57.81
56689;BME280;42565;53.342;-1.534;2023-02-04T12:17:59;100961.05;;;9.68;59.21
56689;BME280;42565;53.342;-1.534;2023-02-04T12:20:28;100962.68;;;9.35;60.44
56689;BME280;42565;53.342;-1.534;2023-02-04T12:22:54;100958.74;;;9.68;59.78
56689;BME280;42565;53.342;-1.534;2023-02-04T12:25:22;100962.78;;;10.00;58.59
56689;BME280;42565;53.342;-1.534;2023-02-04T12:27:49;100962.13;;;9.55;59.79
56689;BME280;42565;53.342;-1.534;2023-02-04T12:30:17;100962.43;;;9.65;60.66
56689;BME280;42565;53.342;-1.534;2023-02-04T12:32:44;100959.28;;;9.07;61.88
56689;BME280;42565;53.342;-1.534;2023-02-04T12:35:11;100961.47;;;9.40;61.35
56689;BME280;42565;53.342;-1.534;2023-02-04T12:37:39;100956.78;;;9.98;59.50
56689;BME280;42565;53.342;-1.534;2023-02-04T12:40:08;100953.58;;;9.32;59.66
56689;BME280;42565;53.342;-1.534;2023-02-04T12:42:36;100951.31;;;8.94;60.75
56689;BME280;42565;53.342;-1.534;2023-02-04T12:45:03;100952.38;;;8.99;62.23
56689;BME280;42565;53.342;-1.534;2023-02-04T12:47:30;100956.41;;;8.76;62.70
56689;BME280;42565;53.342;-1.534;2023-02-04T12:49:57;100951.89;;;8.22;64.57
56689;BME280;42565;53.342;-1.534;2023-02-04T12:52:23;100952.42;;;8.48;63.69